Time;durP1;ratioP1;P1;durP2;ratioP2;P2;SDS_P1;SDS_P2;PMS_P1;PMS_P2;Temp;Humidity;BMP_temperature;BMP_pressure;BME280_temperature;BME280_humidity;BME280_pressure;Samples;Min_cycle;Max_cycle;Signal;HPM_P1;HPM_P2
2022/12/05 00:00:21;;;;;;;1999.90;999.90;;;4.10;99.90;;;;;;5047459;28;20509;-66
2022/12/05 00:02:48;;;;;;;1999.90;999.90;;;4.10;99.90;;;;;;5049225;28;20479;-66
2022/12/05 00:05:16;;;;;;;1999.90;999.90;;;4.10;99.90;;;;;;5049023;28;20440;-66
2022/12/05 00:07:43;;;;;;;1999.90;999.90;;;4.10;99.90;;;;;;5048825;28;20448;-66
2022/12/05 00:10:10;;;;;;;1999.90;999.90;;;4.10;99.90;;;;;;5048560;28;20450;-66
2022/12/05 00:12:37;;;;;;;1999.90;999.90;;;4.10;99.90;;;;;;5048010;28;20471;-66
2022/12/05 00:15:04;;;;;;;1999.90;999.90;;;4.10;99.90;;;;;;5048680;28;20961;-66
2022/12/05 00:17:31;;;;;;;1999.90;999.90;;;4.10;99.90;;;;;;5048484;28;20441;-66
2022/12/05 00:19:58;;;;;;;1999.90;999.90;;;4.10;99.90;;;;;;5048699;28;20443;-66
2022/12/05 00:22:26;;;;;;;1999.90;999.90;;;4.10;99.90;;;;;;5048181;28;20471;-66
2022/12/05 00:24:53;;;;;;;1999.90;999.90;;;4.10;99.90;;;;;;5047550;28;20566;-66
2022/12/05 00:27:20;;;;;;;1999.90;999.90;;;4.10;99.90;;;;;;5048457;28;20451;-66
2022/12/05 00:29:47;;;;;;;1999.90;999.90;;;4.20;99.90;;;;;;5048211;28;20867;-66
2022/12/05 00:32:14;;;;;;;1999.90;999.90;;;4.10;99.90;;;;;;5048627;28;20460;-66
2022/12/05 00:34:40;;;;;;;1999.90;999.90;;;4.10;99.90;;;;;;5047989;28;20460;-66
2022/12/05 00:37:07;;;;;;;1999.90;999.90;;;4.20;99.90;;;;;;5048009;28;20841;-66
2022/12/05 00:39:36;;;;;;;1999.90;999.90;;;4.10;99.90;;;;;;5047685;28;20444;-66
2022/12/05 00:42:03;;;;;;;1999.90;999.90;;;4.20;99.90;;;;;;5048358;28;20471;-66
2022/12/05 00:44:30;;;;;;;1999.90;999.90;;;4.20;99.90;;;;;;5047908;28;21001;-66
2022/12/05 00:46:57;;;;;;;1999.90;999.90;;;4.20;99.90;;;;;;5047753;28;20539;-66
2022/12/05 00:49:24;;;;;;;1999.90;999.90;;;4.20;99.90;;;;;;5046987;28;20448;-66
2022/12/05 00:51:51;;;;;;;1999.90;999.90;;;4.20;99.90;;;;;;5047117;28;20472;-66
2022/12/05 00:54:18;;;;;;;1999.90;999.90;;;4.30;99.90;;;;;;5047843;28;20436;-66
2022/12/05 00:56:46;;;;;;;1999.90;999.90;;;4.20;99.90;;;;;;5048314;28;20436;-66
2022/12/05 00:59:16;;;;;;;1999.90;999.90;;;4.20;99.90;;;;;;5047860;28;20814;-67
2022/12/05 01:01:44;;;;;;;1999.90;999.90;;;4.20;99.90;;;;;;5047885;28;20479;-66
2022/12/05 01:04:13;;;;;;;1999.90;999.90;;;4.20;99.90;;;;;;5047928;28;20491;-66
2022/12/05 01:06:41;;;;;;;1999.90;999.90;;;4.30;99.90;;;;;;5047676;28;20436;-66
2022/12/05 01:09:10;;;;;;;1999.90;999.90;;;4.30;99.90;;;;;;5046928;28;20974;-66
2022/12/05 01:11:37;;;;;;;1999.90;999.90;;;4.30;99.90;;;;;;5048001;28;20586;-66
2022/12/05 01:14:06;;;;;;;1999.90;999.90;;;4.30;99.90;;;;;;5047716;28;20446;-66
2022/12/05 01:16:34;;;;;;;1999.90;999.90;;;4.20;99.90;;;;;;5047870;28;20448;-66
2022/12/05 01:19:04;;;;;;;1999.90;999.90;;;4.20;99.90;;;;;;5049188;28;20448;-66
2022/12/05 01:21:31;;;;;;;1999.90;999.90;;;4.20;99.90;;;;;;5050672;28;20478;-66
2022/12/05 01:23:59;;;;;;;1999.90;999.90;;;4.10;99.90;;;;;;5050109;28;20480;-66
2022/12/05 01:26:25;;;;;;;1999.90;999.90;;;4.20;99.90;;;;;;5050568;28;20855;-66
2022/12/05 01:28:52;;;;;;;1999.90;999.90;;;4.20;99.90;;;;;;5050210;28;20967;-66
2022/12/05 01:31:23;;;;;;;1999.90;999.90;;;4.20;99.90;;;;;;5050117;28;20470;-66
2022/12/05 01:33:52;;;;;;;1999.90;999.90;;;4.20;99.90;;;;;;5050408;28;20440;-66
2022/12/05 01:36:20;;;;;;;1999.90;999.90;;;4.20;99.90;;;;;;5049670;28;20965;-66
2022/12/05 01:38:47;;;;;;;1999.90;999.90;;;4.20;99.90;;;;;;5049919;28;20447;-66
2022/12/05 01:41:16;;;;;;;1999.90;999.90;;;4.30;99.90;;;;;;5050052;28;20562;-66
2022/12/05 01:43:57;;;;;;;1999.90;999.90;;;4.20;99.90;;;;;;5050139;28;20483;-66
2022/12/05 01:46:27;;;;;;;1999.90;999.90;;;4.20;99.90;;;;;;5050129;28;20461;-66
2022/12/05 01:48:58;;;;;;;1999.90;999.90;;;4.20;99.90;;;;;;5049757;28;20942;-66
2022/12/05 01:51:25;;;;;;;1999.90;999.90;;;4.20;99.90;;;;;;5049894;28;20914;-66
2022/12/05 01:53:52;;;;;;;1999.90;999.90;;;4.30;99.90;;;;;;5050061;28;20447;-66
2022/12/05 01:56:20;;;;;;;1999.90;999.90;;;4.30;99.90;;;;;;5049816;28;20444;-66
2022/12/05 01:58:47;;;;;;;1999.90;999.90;;;4.20;99.90;;;;;;5049592;28;20454;-66
2022/12/05 02:01:16;;;;;;;1999.90;999.90;;;4.20;99.90;;;;;;5050241;28;20467;-66
2022/12/05 02:03:46;;;;;;;1999.90;999.90;;;4.20;99.90;;;;;;5049756;28;20480;-66
2022/12/05 02:06:14;;;;;;;1999.90;999.90;;;4.20;99.90;;;;;;5049825;28;20444;-66
2022/12/05 02:08:41;;;;;;;1999.90;999.90;;;4.20;99.90;;;;;;5049384;28;20946;-66
2022/12/05 02:11:09;;;;;;;1999.90;999.90;;;4.20;99.90;;;;;;5050010;28;20460;-66
2022/12/05 02:13:52;;;;;;;1999.90;999.90;;;4.20;99.90;;;;;;5050034;28;20468;-67
2022/12/05 02:16:26;;;;;;;1999.90;999.90;;;4.20;99.90;;;;;;5050197;28;20440;-66
2022/12/05 02:19:04;;;;;;;1999.90;999.90;;;4.20;99.90;;;;;;5049643;28;20444;-66
2022/12/05 02:22:03;;;;;;;1999.90;999.90;;;4.20;99.90;;;;;;5049905;28;20468;-66
2022/12/05 02:25:20;;;;;;;1999.90;999.90;;;4.20;99.90;;;;;;5049790;28;20483;-66
2022/12/05 02:28:14;;;;;;;1999.90;999.90;;;4.30;99.90;;;;;;5007580;28;20445;-66
2022/12/05 02:30:47;;;;;;;1999.90;999.90;;;4.30;99.90;;;;;;5049299;28;20467;-66
2022/12/05 02:33:21;;;;;;;1999.90;999.90;;;4.30;99.90;;;;;;5049858;28;20448;-66
2022/12/05 02:35:58;;;;;;;1999.90;999.90;;;4.20;99.90;;;;;;5049165;28;20466;-66
2022/12/05 02:38:29;;;;;;;1999.90;999.90;;;4.20;99.90;;;;;;5049146;28;20436;-66
2022/12/05 02:41:04;;;;;;;1999.90;999.90;;;4.20;99.90;;;;;;5049290;28;20452;-66
2022/12/05 02:43:36;;;;;;;1999.90;999.90;;;4.30;99.90;;;;;;5049509;28;20455;-66
2022/12/05 02:46:09;;;;;;;1999.90;999.90;;;4.20;99.90;;;;;;5049303;28;20531;-66
2022/12/05 02:48:37;;;;;;;1999.90;999.90;;;4.20;99.90;;;;;;5053258;28;20467;-66
2022/12/05 02:51:07;;;;;;;1999.90;999.90;;;4.30;99.90;;;;;;5053287;28;20468;-66
2022/12/05 02:53:37;;;;;;;1999.90;999.90;;;4.30;99.90;;;;;;5053721;28;20443;-66
2022/12/05 02:56:04;;;;;;;1999.90;999.90;;;4.30;99.90;;;;;;5053101;28;20444;-66
2022/12/05 02:58:36;;;;;;;1999.90;999.90;;;4.40;99.90;;;;;;5053014;28;20454;-66
2022/12/05 03:01:04;;;;;;;1999.90;999.90;;;4.30;99.90;;;;;;5052824;28;20472;-66
2022/12/05 03:03:33;;;;;;;1999.90;999.90;;;4.40;99.90;;;;;;5053314;28;20478;-66
2022/12/05 03:06:04;;;;;;;1999.90;999.90;;;4.40;99.90;;;;;;5052999;28;20458;-67
2022/12/05 03:08:35;;;;;;;1999.90;999.90;;;4.40;99.90;;;;;;5052700;28;20440;-66
2022/12/05 03:11:03;;;;;;;1999.90;999.90;;;4.50;99.90;;;;;;5053196;28;20503;-67
2022/12/05 03:13:36;;;;;;;1999.90;999.90;;;4.50;99.90;;;;;;5052662;28;20456;-67
2022/12/05 03:16:10;;;;;;;1999.90;999.90;;;4.50;99.90;;;;;;5052903;28;20505;-67
2022/12/05 03:18:40;;;;;;;1999.90;999.90;;;4.50;99.90;;;;;;5052508;28;20443;-66
2022/12/05 03:21:15;;;;;;;1999.90;999.90;;;4.50;99.90;;;;;;5053134;28;20833;-66
2022/12/05 03:23:45;;;;;;;1999.90;999.90;;;4.50;99.90;;;;;;5052647;28;20763;-66
2022/12/05 03:26:19;;;;;;;1999.90;999.90;;;4.60;99.90;;;;;;5052640;28;20452;-66
2022/12/05 03:28:57;;;;;;;1999.90;999.90;;;4.50;99.90;;;;;;5052417;28;20824;-66
2022/12/05 03:31:34;;;;;;;1999.90;999.90;;;4.50;99.90;;;;;;5053272;28;20459;-66
2022/12/05 03:34:03;;;;;;;1999.90;999.90;;;4.50;99.90;;;;;;5052481;28;20501;-66
2022/12/05 03:36:38;;;;;;;1999.90;999.90;;;4.50;99.90;;;;;;5055105;28;20456;-67
2022/12/05 03:39:10;;;;;;;1999.90;999.90;;;4.40;99.90;;;;;;5052153;28;20459;-67
2022/12/05 03:41:41;;;;;;;1999.90;999.90;;;4.40;99.90;;;;;;5052641;28;20471;-67
2022/12/05 03:44:13;;;;;;;1999.90;999.90;;;4.40;99.90;;;;;;5052396;28;20472;-67
2022/12/05 03:46:46;;;;;;;1999.90;999.90;;;4.50;99.90;;;;;;5052430;28;20444;-67
2022/12/05 03:49:20;;;;;;;1999.90;999.90;;;4.50;99.90;;;;;;5051637;28;20462;-67
2022/12/05 03:51:53;;;;;;;1999.90;999.90;;;4.60;99.90;;;;;;5052250;28;21001;-67
2022/12/05 03:54:25;;;;;;;1999.90;999.90;;;4.70;99.90;;;;;;5052172;28;20985;-67
2022/12/05 03:56:58;;;;;;;1999.90;999.90;;;4.60;99.90;;;;;;5052201;28;20448;-67
2022/12/05 03:59:32;;;;;;;1999.90;999.90;;;4.70;99.90;;;;;;5051661;28;20539;-67
2022/12/05 04:02:04;;;;;;;1999.90;999.90;;;4.70;99.90;;;;;;5051901;28;20471;-67
2022/12/05 04:04:36;;;;;;;1999.90;999.90;;;4.80;99.90;;;;;;5052081;28;20476;-67
2022/12/05 04:07:06;;;;;;;1999.90;999.90;;;4.80;99.90;;;;;;5051876;28;20440;-67
2022/12/05 04:09:38;;;;;;;1999.90;999.90;;;4.80;99.90;;;;;;5051713;28;20458;-67
2022/12/05 04:12:10;;;;;;;1999.90;999.90;;;4.80;99.90;;;;;;5051504;28;20837;-67
2022/12/05 04:14:41;;;;;;;1999.90;999.90;;;4.80;99.90;;;;;;5052054;28;20444;-67
2022/12/05 04:17:14;;;;;;;1999.90;999.90;;;4.80;99.90;;;;;;5051857;28;20455;-67
2022/12/05 04:22:28;;;;;;;1999.90;999.90;;;4.90;99.90;;;;;;5051383;28;20447;-67
2022/12/05 04:27:50;;;;;;;1999.90;999.90;;;4.60;99.90;;;;;;5051562;28;20428;-67
2022/12/05 04:30:20;;;;;;;1999.90;999.90;;;4.60;99.90;;;;;;5051333;28;20443;-67
2022/12/05 04:32:55;;;;;;;1999.90;999.90;;;4.50;99.90;;;;;;5051300;28;20448;-67
2022/12/05 04:35:25;;;;;;;1999.90;999.90;;;4.50;99.90;;;;;;5051517;28;20452;-67
2022/12/05 04:37:56;;;;;;;1999.90;999.90;;;4.40;99.90;;;;;;5051599;28;20448;-67
2022/12/05 04:40:33;;;;;;;1999.90;999.90;;;4.40;99.90;;;;;;5051293;28;20456;-67
2022/12/05 04:43:02;;;;;;;1999.90;999.90;;;4.40;99.90;;;;;;5051356;28;20945;-67
2022/12/05 04:45:30;;;;;;;1999.90;999.90;;;4.50;99.90;;;;;;5051429;28;20502;-67
2022/12/05 04:48:02;;;;;;;1999.90;999.90;;;4.60;99.90;;;;;;5051673;28;20455;-67
2022/12/05 04:50:33;;;;;;;1999.90;999.90;;;4.70;99.90;;;;;;5051657;28;20455;-67
2022/12/05 04:53:01;;;;;;;1999.90;999.90;;;4.70;99.90;;;;;;5051723;28;20451;-67
2022/12/05 04:55:33;;;;;;;1999.90;999.90;;;4.60;99.90;;;;;;5051278;28;20451;-67
2022/12/05 04:58:07;;;;;;;1999.90;999.90;;;4.70;99.90;;;;;;5051649;28;20441;-67
2022/12/05 05:00:39;;;;;;;1999.90;999.90;;;4.80;99.90;;;;;;5051176;28;20464;-67
2022/12/05 05:03:11;;;;;;;1999.90;999.90;;;4.80;99.90;;;;;;5051362;28;20455;-67
2022/12/05 05:05:40;;;;;;;1999.90;999.90;;;4.80;99.90;;;;;;5051171;28;21028;-67
2022/12/05 05:08:17;;;;;;;1999.90;999.90;;;4.70;99.90;;;;;;5050997;28;20447;-68
2022/12/05 05:10:52;;;;;;;1999.90;999.90;;;4.70;99.90;;;;;;5051110;28;20475;-67
2022/12/05 05:13:18;;;;;;;1999.90;999.90;;;4.80;99.90;;;;;;5051059;28;20443;-67
2022/12/05 05:15:45;;;;;;;1999.90;999.90;;;4.80;99.90;;;;;;5050597;28;20819;-67
2022/12/05 05:18:13;;;;;;;1999.90;999.90;;;4.70;99.90;;;;;;5050688;28;20454;-67
2022/12/05 05:20:40;;;;;;;1999.90;999.90;;;4.80;99.90;;;;;;5050199;28;20464;-67
2022/12/05 05:23:07;;;;;;;1999.90;999.90;;;4.80;99.90;;;;;;5050618;28;20451;-67
2022/12/05 05:25:34;;;;;;;1999.90;999.90;;;4.80;99.90;;;;;;5050694;28;20511;-67
2022/12/05 05:28:00;;;;;;;1999.90;999.90;;;4.80;99.90;;;;;;5050353;28;20448;-66
2022/12/05 05:30:27;;;;;;;1999.90;999.90;;;4.70;99.90;;;;;;5050180;28;20451;-67
2022/12/05 05:32:54;;;;;;;1999.90;999.90;;;4.80;99.90;;;;;;5049926;28;20455;-66
2022/12/05 05:35:22;;;;;;;1999.90;999.90;;;4.80;99.90;;;;;;5050195;28;20460;-66
2022/12/05 05:37:49;;;;;;;1999.90;999.90;;;4.90;99.90;;;;;;5050255;28;20440;-66
2022/12/05 05:40:16;;;;;;;1999.90;999.90;;;4.90;99.90;;;;;;5050107;28;20440;-66
2022/12/05 05:42:44;;;;;;;1999.90;999.90;;;5.00;99.90;;;;;;5050165;28;20452;-67
2022/12/05 05:45:11;;;;;;;1999.90;999.90;;;5.00;99.90;;;;;;5050179;28;20476;-66
2022/12/05 05:47:38;;;;;;;1999.90;999.90;;;5.00;99.90;;;;;;5049819;28;20448;-67
2022/12/05 05:50:07;;;;;;;1999.90;999.90;;;5.00;99.90;;;;;;5050028;28;20502;-68
2022/12/05 05:52:35;;;;;;;1999.90;999.90;;;5.00;99.90;;;;;;5050121;28;20537;-67
2022/12/05 05:55:04;;;;;;;1999.90;999.90;;;5.00;99.90;;;;;;5049892;28;20466;-67
2022/12/05 05:57:31;;;;;;;1999.90;999.90;;;5.00;99.90;;;;;;5050071;28;20473;-66
2022/12/05 05:59:58;;;;;;;1999.90;999.90;;;5.10;99.90;;;;;;5047526;28;20454;-67
2022/12/05 06:02:25;;;;;;;1999.90;999.90;;;5.10;99.90;;;;;;5045962;28;20468;-68
2022/12/05 06:04:52;;;;;;;1999.90;999.90;;;5.10;99.90;;;;;;5048892;28;20837;-66
2022/12/05 06:07:18;;;;;;;1999.90;999.90;;;5.20;99.90;;;;;;5049601;28;20836;-67
2022/12/05 06:09:46;;;;;;;1999.90;999.90;;;5.10;99.90;;;;;;5032338;28;20823;-68
2022/12/05 06:12:13;;;;;;;1999.90;999.90;;;5.10;99.90;;;;;;5029981;28;20841;-67
2022/12/05 06:14:40;;;;;;;1999.90;999.90;;;5.10;99.90;;;;;;5029559;28;20958;-66
2022/12/05 06:17:07;;;;;;;1999.90;999.90;;;5.20;99.90;;;;;;5029357;28;20488;-66
2022/12/05 06:19:34;;;;;;;1999.90;999.90;;;5.20;99.90;;;;;;5027878;28;20453;-67
2022/12/05 06:22:00;;;;;;;1999.90;999.90;;;5.20;99.90;;;;;;5027243;28;20482;-67
2022/12/05 06:24:27;;;;;;;1999.90;999.90;;;5.30;99.90;;;;;;5029495;28;20449;-67
2022/12/05 06:26:55;;;;;;;1999.90;999.90;;;5.30;99.90;;;;;;5028870;28;20952;-66
2022/12/05 06:29:22;;;;;;;1999.90;999.90;;;5.30;99.90;;;;;;5029873;28;20998;-67
2022/12/05 06:31:49;;;;;;;1999.90;999.90;;;5.30;99.90;;;;;;5046736;28;20495;-67
2022/12/05 06:34:16;;;;;;;1999.90;999.90;;;5.30;99.90;;;;;;5049688;28;20444;-67
2022/12/05 06:36:42;;;;;;;1999.90;999.90;;;5.20;99.90;;;;;;5049618;28;20535;-67
2022/12/05 06:39:09;;;;;;;1999.90;999.90;;;5.20;99.90;;;;;;5049349;28;20448;-66
2022/12/05 06:41:36;;;;;;;1999.90;999.90;;;5.20;99.90;;;;;;5049100;28;20464;-67
2022/12/05 06:44:04;;;;;;;1999.90;999.90;;;5.20;99.90;;;;;;5049673;28;20452;-67
2022/12/05 06:46:31;;;;;;;1999.90;999.90;;;5.30;99.90;;;;;;5049533;28;20479;-67
2022/12/05 06:48:59;;;;;;;1999.90;999.90;;;5.20;99.90;;;;;;5049272;28;20535;-66
2022/12/05 06:51:25;;;;;;;1999.90;999.90;;;5.20;99.90;;;;;;5049568;28;20583;-66
2022/12/05 06:53:52;;;;;;;1999.90;999.90;;;5.20;99.90;;;;;;5049213;28;20452;-67
2022/12/05 06:56:20;;;;;;;1999.90;999.90;;;5.20;99.90;;;;;;5049487;28;20439;-67
2022/12/05 06:58:51;;;;;;;1999.90;999.90;;;5.20;99.90;;;;;;5049091;28;20446;-67
2022/12/05 07:04:12;;;;;;;1999.90;999.90;;;5.20;99.90;;;;;;5043257;28;20523;-67
2022/12/05 07:06:40;;;;;;;1999.90;999.90;;;5.20;99.90;;;;;;5049358;28;20570;-67
2022/12/05 07:09:08;;;;;;;1999.90;999.90;;;5.20;99.90;;;;;;5048106;28;20444;-67
2022/12/05 07:11:35;;;;;;;1999.90;999.90;;;5.20;99.90;;;;;;5039533;28;21168;-67
2022/12/05 07:14:02;;;;;;;1999.90;999.90;;;5.20;99.90;;;;;;5042754;28;20920;-67
2022/12/05 07:16:31;;;;;;;1999.90;999.90;;;5.20;99.90;;;;;;5043839;28;20447;-67
2022/12/05 07:18:58;;;;;;;1999.90;999.90;;;5.10;99.90;;;;;;5043149;28;20440;-67
2022/12/05 07:21:25;;;;;;;1999.90;999.90;;;5.20;99.90;;;;;;5042990;28;20467;-67
2022/12/05 07:23:51;;;;;;;1999.90;999.90;;;5.20;99.90;;;;;;5045855;28;20455;-67
2022/12/05 07:26:21;;;;;;;1999.90;999.90;;;5.30;99.90;;;;;;5048108;28;20871;-67
2022/12/05 07:28:48;;;;;;;1999.90;999.90;;;5.40;99.90;;;;;;5047757;28;20447;-67
2022/12/05 07:31:18;;;;;;;1999.90;999.90;;;5.40;99.90;;;;;;5048950;28;20468;-67
2022/12/05 07:33:46;;;;;;;1999.90;999.90;;;5.50;99.90;;;;;;5052382;28;20448;-67
2022/12/05 07:36:15;;;;;;;1999.90;999.90;;;5.60;99.90;;;;;;5053190;28;20456;-67
2022/12/05 07:38:42;;;;;;;1999.90;999.90;;;5.60;99.90;;;;;;5053155;28;20522;-67
2022/12/05 07:41:10;;;;;;;1999.90;999.90;;;5.60;99.90;;;;;;5053481;28;20482;-67
2022/12/05 07:43:37;;;;;;;1999.90;999.90;;;5.70;99.90;;;;;;5053594;28;20452;-67
2022/12/05 07:46:05;;;;;;;1999.90;999.90;;;5.60;99.90;;;;;;5053670;28;20518;-67
2022/12/05 07:48:32;;;;;;;1999.90;999.90;;;5.70;99.90;;;;;;5053661;28;20451;-67
2022/12/05 07:51:02;;;;;;;1999.90;999.90;;;5.70;99.90;;;;;;5053542;28;20470;-67
2022/12/05 07:53:28;;;;;;;1999.90;999.90;;;5.90;99.90;;;;;;5053492;28;20497;-67
2022/12/05 07:55:55;;;;;;;1999.90;999.90;;;6.00;99.90;;;;;;5053326;28;20447;-67
2022/12/05 07:58:22;;;;;;;1999.90;999.90;;;6.10;99.90;;;;;;5052612;28;20448;-67
2022/12/05 08:00:49;;;;;;;1999.90;999.90;;;6.20;99.90;;;;;;5053213;28;20475;-67
2022/12/05 08:03:15;;;;;;;1999.90;999.90;;;6.30;99.90;;;;;;5052614;28;20444;-67
2022/12/05 08:05:42;;;;;;;1999.90;999.90;;;6.30;99.90;;;;;;5052129;28;20484;-67
2022/12/05 08:08:10;;;;;;;1999.90;999.90;;;6.30;99.90;;;;;;5052019;28;20444;-67
2022/12/05 08:10:37;;;;;;;1999.90;999.90;;;6.30;99.90;;;;;;5051864;28;20468;-67
2022/12/05 08:13:04;;;;;;;1999.90;999.90;;;6.40;99.90;;;;;;5051589;28;20971;-67
2022/12/05 08:15:30;;;;;;;1999.90;999.90;;;6.40;99.90;;;;;;5052091;28;20439;-67
2022/12/05 08:17:57;;;;;;;1999.90;999.90;;;6.30;99.90;;;;;;5051974;28;20508;-67
2022/12/05 08:20:24;;;;;;;1999.90;999.90;;;6.40;99.90;;;;;;5051724;28;20476;-67
2022/12/05 08:22:52;;;;;;;1999.90;999.90;;;6.40;99.90;;;;;;5051828;28;20456;-67
2022/12/05 08:25:21;;;;;;;1999.90;999.90;;;6.50;99.90;;;;;;5051624;28;20499;-67
2022/12/05 08:27:47;;;;;;;1999.90;999.90;;;6.70;99.90;;;;;;5052062;28;20448;-67
2022/12/05 08:30:14;;;;;;;1999.90;999.90;;;6.80;99.90;;;;;;5051388;28;20444;-67
2022/12/05 08:32:41;;;;;;;1999.90;999.90;;;6.80;99.90;;;;;;5051804;28;20463;-68
2022/12/05 08:35:09;;;;;;;1999.90;999.90;;;6.70;99.90;;;;;;5051389;28;21008;-67
2022/12/05 08:37:36;;;;;;;1999.90;999.90;;;6.70;99.90;;;;;;5051620;28;20448;-67
2022/12/05 08:40:04;;;;;;;1999.90;999.90;;;6.60;99.90;;;;;;5051220;28;20456;-67
2022/12/05 08:42:32;;;;;;;1999.90;999.90;;;6.60;99.90;;;;;;5051470;28;20475;-66
2022/12/05 08:45:02;;;;;;;1999.90;999.90;;;6.70;99.90;;;;;;5050511;28;20914;-67
2022/12/05 08:47:32;;;;;;;1999.90;999.90;;;6.70;99.90;;;;;;5051492;28;20444;-67
2022/12/05 08:50:14;;;;;;;1999.90;999.90;;;6.70;99.90;;;;;;5050908;28;20444;-67
2022/12/05 08:52:41;;;;;;;1999.90;999.90;;;6.60;99.90;;;;;;5051217;28;20571;-67
2022/12/05 08:55:09;;;;;;;1999.90;999.90;;;6.60;99.90;;;;;;5051203;28;20539;-67
2022/12/05 08:57:40;;;;;;;1999.90;999.90;;;6.60;99.90;;;;;;5051012;28;20452;-67
2022/12/05 09:00:11;;;;;;;1999.90;999.90;;;6.50;99.90;;;;;;5050934;28;21177;-67
2022/12/05 09:02:37;;;;;;;1999.90;999.90;;;6.50;99.90;;;;;;5050984;28;20468;-67
2022/12/05 09:05:05;;;;;;;1999.90;999.90;;;6.70;99.90;;;;;;5050698;28;20455;-67
2022/12/05 09:07:32;;;;;;;1999.90;999.90;;;6.70;99.90;;;;;;5051118;28;20444;-67
2022/12/05 09:09:58;;;;;;;1999.90;999.90;;;6.80;99.90;;;;;;5050601;28;20444;-67
2022/12/05 09:12:25;;;;;;;1999.90;999.90;;;6.80;99.90;;;;;;5050904;28;20553;-67
2022/12/05 09:14:55;;;;;;;1999.90;999.90;;;6.80;99.90;;;;;;5050690;28;20452;-68
2022/12/05 09:17:23;;;;;;;1999.90;999.90;;;6.90;99.90;;;;;;5050657;28;20510;-67
2022/12/05 09:19:51;;;;;;;1999.90;999.90;;;7.10;99.90;;;;;;5050727;28;20882;-66
2022/12/05 09:22:25;;;;;;;1999.90;999.90;;;7.10;99.90;;;;;;5050615;28;20460;-69
2022/12/05 09:24:58;;;;;;;1999.90;999.90;;;7.20;99.90;;;;;;5051405;28;20444;-67
2022/12/05 09:27:29;;;;;;;1999.90;999.90;;;7.20;99.90;;;;;;5050719;28;20578;-67
2022/12/05 09:29:57;;;;;;;1999.90;999.90;;;7.30;99.90;;;;;;5051093;28;20448;-67
2022/12/05 09:32:24;;;;;;;1999.90;999.90;;;7.40;99.90;;;;;;5051356;28;20474;-67
2022/12/05 09:34:51;;;;;;;1999.90;999.90;;;7.30;99.90;;;;;;5050788;28;20455;-67
2022/12/05 09:37:19;;;;;;;1999.90;999.90;;;7.30;99.90;;;;;;5050847;28;20452;-68
2022/12/05 09:39:45;;;;;;;1999.90;999.90;;;7.30;99.90;;;;;;5050411;28;20827;-67
2022/12/05 09:42:37;;;;;;;1999.90;999.90;;;7.30;99.90;;;;;;5050290;28;20888;-67
2022/12/05 09:45:16;;;;;;;1999.90;999.90;;;7.30;99.90;;;;;;5043163;28;20464;-66
2022/12/05 09:47:49;;;;;;;1999.90;999.90;;;7.30;99.90;;;;;;5050438;28;20444;-67
2022/12/05 09:50:21;;;;;;;1999.90;999.90;;;7.30;99.90;;;;;;5049937;28;20444;-66
2022/12/05 09:53:05;;;;;;;1999.90;999.90;;;7.40;99.90;;;;;;5050045;28;20440;-67
2022/12/05 09:55:41;;;;;;;1999.90;999.90;;;7.40;99.90;;;;;;5049992;28;20547;-66
2022/12/05 09:58:20;;;;;;;1999.90;999.90;;;7.60;99.90;;;;;;5049910;28;20450;-67
2022/12/05 10:00:51;;;;;;;1999.90;999.90;;;7.70;99.90;;;;;;5049979;28;20470;-67
2022/12/05 10:03:25;;;;;;;1999.90;999.90;;;7.80;99.90;;;;;;5049878;28;20451;-67
2022/12/05 10:06:01;;;;;;;1999.90;999.90;;;7.80;99.90;;;;;;5050086;28;20491;-67
2022/12/05 10:08:34;;;;;;;1999.90;999.90;;;7.70;99.90;;;;;;5049777;28;20474;-67
2022/12/05 10:11:05;;;;;;;1999.90;999.90;;;7.70;99.90;;;;;;5049876;28;20809;-66
2022/12/05 10:13:45;;;;;;;1999.90;999.90;;;7.60;99.90;;;;;;5049942;28;20452;-66
2022/12/05 10:16:20;;;;;;;1999.90;999.90;;;7.50;99.90;;;;;;5049997;28;20818;-67
2022/12/05 10:18:52;;;;;;;1999.90;999.90;;;7.30;99.90;;;;;;5049620;28;20439;-66
2022/12/05 10:21:21;;;;;;;1999.90;999.90;;;7.10;99.90;;;;;;5049833;28;20467;-67
2022/12/05 10:23:57;;;;;;;1999.90;999.90;;;7.00;99.90;;;;;;5049721;28;20833;-67
2022/12/05 10:26:27;;;;;;;1999.90;999.90;;;6.80;99.90;;;;;;5049611;28;20857;-67
2022/12/05 10:29:01;;;;;;;1999.90;999.90;;;6.70;99.90;;;;;;5049436;28;20830;-67
2022/12/05 10:31:33;;;;;;;1999.90;999.90;;;6.60;99.90;;;;;;5049594;28;20998;-67
2022/12/05 10:34:04;;;;;;;1999.90;999.90;;;6.40;99.90;;;;;;5049626;28;20451;-66
2022/12/05 10:36:31;;;;;;;1999.90;999.90;;;6.20;99.90;;;;;;5049462;28;20452;-66
2022/12/05 10:38:59;;;;;;;1999.90;999.90;;;6.10;99.90;;;;;;5049068;28;20518;-66
2022/12/05 10:41:27;;;;;;;1999.90;999.90;;;6.00;99.90;;;;;;5049451;28;20478;-66
2022/12/05 10:43:56;;;;;;;1999.90;999.90;;;6.00;99.90;;;;;;5049576;28;20573;-66
2022/12/05 10:46:23;;;;;;;1999.90;999.90;;;5.90;99.90;;;;;;5049105;28;20526;-66
2022/12/05 10:48:51;;;;;;;1999.90;999.90;;;5.90;99.90;;;;;;5048686;28;20942;-66
2022/12/05 10:51:23;;;;;;;1999.90;999.90;;;6.00;99.90;;;;;;5049315;28;20486;-66
2022/12/05 10:53:51;;;;;;;1999.90;999.90;;;6.20;99.90;;;;;;5049657;28;20461;-66
2022/12/05 10:56:43;;;;;;;1999.90;999.90;;;6.30;99.90;;;;;;5049065;28;21177;-65
2022/12/05 10:59:12;;;;;;;1999.90;999.90;;;6.50;99.90;;;;;;5049056;28;20451;-66
2022/12/05 11:01:46;;;;;;;1999.90;999.90;;;6.70;99.90;;;;;;5049323;28;20488;-67
2022/12/05 11:04:22;;;;;;;1999.90;999.90;;;6.90;99.90;;;;;;5049611;28;20448;-68
2022/12/05 11:06:52;;;;;;;1999.90;999.90;;;7.20;99.90;;;;;;5049430;28;20484;-66
2022/12/05 11:09:21;;;;;;;1999.90;999.90;;;7.40;99.90;;;;;;5052652;28;20870;-66
2022/12/05 11:12:01;;;;;;;1999.90;999.90;;;7.60;99.90;;;;;;5053205;28;20468;-67
2022/12/05 11:14:28;;;;;;;1999.90;999.90;;;7.90;99.90;;;;;;5053314;28;20454;-66
2022/12/05 11:16:57;;;;;;;1999.90;999.90;;;8.20;99.90;;;;;;5053315;28;20439;-66
2022/12/05 11:19:29;;;;;;;1999.90;999.90;;;8.40;99.90;;;;;;5052677;28;20450;-67
2022/12/05 11:21:56;;;;;;;1999.90;999.90;;;8.60;99.90;;;;;;5042264;28;20547;-66
2022/12/05 11:24:27;;;;;;;1999.90;999.90;;;8.40;99.90;;;;;;5047111;28;20444;-66
2022/12/05 11:26:53;;;;;;;1999.90;999.90;;;8.20;99.90;;;;;;5045596;28;20574;-67
2022/12/05 11:29:32;;;;;;;1999.90;999.90;;;7.80;99.90;;;;;;5046462;28;20447;-66
2022/12/05 11:31:59;;;;;;;1999.90;999.90;;;7.50;99.90;;;;;;5046591;28;21841;-66
2022/12/05 11:34:35;;;;;;;1999.90;999.90;;;7.20;99.90;;;;;;5045605;28;20436;-66
2022/12/05 11:37:21;;;;;;;1999.90;999.90;;;7.10;99.90;;;;;;5047020;28;21016;-66
2022/12/05 11:39:48;;;;;;;1999.90;999.90;;;7.20;99.90;;;;;;5046516;28;20446;-67
2022/12/05 11:42:37;;;;;;;1999.90;999.90;;;7.20;99.90;;;;;;5046671;28;20463;-66
2022/12/05 11:45:31;;;;;;;1999.90;999.90;;;7.40;99.90;;;;;;5046710;28;20436;-67
2022/12/05 11:48:19;;;;;;;1999.90;999.90;;;7.80;99.90;;;;;;5046007;28;20483;-66
2022/12/05 11:50:57;;;;;;;1999.90;999.90;;;8.00;99.90;;;;;;5044561;28;20466;-66
2022/12/05 11:53:38;;;;;;;1999.90;999.90;;;8.20;99.90;;;;;;5045415;28;20450;-66
2022/12/05 11:56:18;;;;;;;1999.90;999.90;;;8.10;99.90;;;;;;5045910;28;20941;-66
2022/12/05 11:59:00;;;;;;;1999.90;999.90;;;7.90;99.90;;;;;;5046928;28;20477;-66
2022/12/05 12:01:42;;;;;;;1999.90;999.90;;;7.90;99.90;;;;;;5045739;28;20482;-67
2022/12/05 12:04:57;;;;;;;1999.90;999.90;;;7.90;99.90;;;;;;5044906;28;20997;-67
2022/12/05 12:07:49;;;;;;;1999.90;999.90;;;7.70;99.90;;;;;;5023777;28;20480;-67
2022/12/05 12:10:29;;;;;;;1999.90;999.90;;;7.60;99.90;;;;;;5045707;28;20440;-66
2022/12/05 12:13:11;;;;;;;1999.90;999.90;;;7.60;99.90;;;;;;5044922;28;20518;-66
2022/12/05 12:15:53;;;;;;;1999.90;999.90;;;7.50;99.90;;;;;;5045524;28;20443;-66
2022/12/05 12:18:39;;;;;;;1999.90;999.90;;;7.50;99.90;;;;;;5044771;28;20812;-66
2022/12/05 12:21:16;;;;;;;1999.90;999.90;;;7.60;99.90;;;;;;5045456;28;20466;-67
2022/12/05 12:23:59;;;;;;;1999.90;999.90;;;7.70;99.90;;;;;;5044752;28;20538;-67
2022/12/05 12:26:37;;;;;;;1999.90;999.90;;;7.70;99.90;;;;;;5044612;28;20843;-67
2022/12/05 12:29:16;;;;;;;1999.90;999.90;;;7.80;99.90;;;;;;5045320;28;20462;-67
2022/12/05 12:31:58;;;;;;;1999.90;999.90;;;8.10;99.90;;;;;;5044737;28;20472;-67
2022/12/05 12:34:42;;;;;;;1999.90;999.90;;;8.10;99.90;;;;;;5044292;28;20451;-67